Time;durP1;ratioP1;P1;durP2;ratioP2;P2;SDS_P1;SDS_P2;PMS_P1;PMS_P2;Temp;Humidity;BMP_temperature;BMP_pressure;BME280_temperature;BME280_humidity;BME280_pressure;Samples;Min_cycle;Max_cycle;Signal;HPM_P1;HPM_P2
2023/07/21 00:00:29;;;;;;;1.75;1.60;;;;;;;;;;5043908;28;20060;-94
2023/07/21 00:02:55;;;;;;;2.00;1.80;;;;;;;;;;5049093;28;20128;-94
2023/07/21 00:05:24;;;;;;;2.70;1.90;;;;;;;;;;5049738;28;20076;-94
2023/07/21 00:07:51;;;;;;;2.00;1.35;;;;;;;;;;5052296;28;20397;-94
2023/07/21 00:10:17;;;;;;;3.03;1.98;;;;;;;;;;5052029;28;20049;-94
2023/07/21 00:12:47;;;;;;;2.40;2.03;;;;;;;;;;5038240;28;20042;-93
2023/07/21 00:15:15;;;;;;;3.13;2.20;;;;;;;;;;5049428;28;20033;-94
2023/07/21 00:17:42;;;;;;;3.40;2.17;;;;;;;;;;5050846;28;20049;-95
2023/07/21 00:20:19;;;;;;;3.22;2.00;;;;;;;;;;5036246;28;20448;-94
2023/07/21 00:22:46;;;;;;;2.80;2.28;;;;;;;;;;5051018;28;20052;-93
2023/07/21 00:25:12;;;;;;;3.47;2.50;;;;;;;;;;5051533;28;20454;-94
2023/07/21 00:27:38;;;;;;;3.22;2.53;;;;;;;;;;5051122;28;20075;-94
2023/07/21 00:30:08;;;;;;;4.05;2.08;;;;;;;;;;5051634;28;20037;-94
2023/07/21 00:32:37;;;;;;;2.97;2.05;;;;;;;;;;5045189;28;20114;-94
2023/07/21 00:35:08;;;;;;;3.35;2.20;;;;;;;;;;5043521;28;20040;-94
2023/07/21 00:37:34;;;;;;;2.67;1.55;;;;;;;;;;5038534;28;20474;-94
2023/07/21 00:40:00;;;;;;;2.88;2.10;;;;;;;;;;5048100;28;20508;-94
2023/07/21 00:42:26;;;;;;;2.08;1.88;;;;;;;;;;5051307;28;20045;-94
2023/07/21 00:44:52;;;;;;;2.03;1.73;;;;;;;;;;5049502;28;20048;-94
2023/07/21 00:47:18;;;;;;;2.20;2.00;;;;;;;;;;5013262;28;20049;-93
2023/07/21 00:49:44;;;;;;;2.70;1.70;;;;;;;;;;5041318;28;20136;-93
2023/07/21 00:52:17;;;;;;;3.15;2.45;;;;;;;;;;5033888;28;20045;-93
2023/07/21 00:54:43;;;;;;;3.92;2.08;;;;;;;;;;5050978;28;20044;-94
2023/07/21 00:57:09;;;;;;;3.85;2.08;;;;;;;;;;5044410;28;20037;-94
2023/07/21 00:59:35;;;;;;;4.10;2.92;;;;;;;;;;5030228;28;20312;-94
2023/07/21 01:02:01;;;;;;;3.00;2.05;;;;;;;;;;5041558;28;20102;-94
2023/07/21 01:04:27;;;;;;;3.45;1.95;;;;;;;;;;5029567;28;20116;-94
2023/07/21 01:06:54;;;;;;;4.03;2.42;;;;;;;;;;5034276;28;20062;-94
2023/07/21 01:09:22;;;;;;;4.07;2.40;;;;;;;;;;5048157;28;20051;-93
2023/07/21 01:11:48;;;;;;;3.00;1.92;;;;;;;;;;5022171;28;20049;-93
2023/07/21 01:14:14;;;;;;;3.03;2.15;;;;;;;;;;5031726;28;20044;-94
2023/07/21 01:16:43;;;;;;;4.20;2.47;;;;;;;;;;5030732;28;20047;-92
2023/07/21 01:19:13;;;;;;;2.50;2.10;;;;;;;;;;5028869;28;20091;-94
2023/07/21 01:21:40;;;;;;;;;;;;;;;;;;5031156;28;20049;-93
2023/07/21 01:24:10;;;;;;;3.20;1.88;;;;;;;;;;5045982;28;20331;-94
2023/07/21 01:26:37;;;;;;;2.83;2.17;;;;;;;;;;5029037;28;20052;-94
2023/07/21 01:29:08;;;;;;;3.75;2.78;;;;;;;;;;5037711;28;20385;-94
2023/07/21 01:31:34;;;;;;;;;;;;;;;;;;5046413;28;20044;-94
2023/07/21 01:34:00;;;;;;;2.25;1.83;;;;;;;;;;5050425;28;19916;-93
2023/07/21 01:36:26;;;;;;;5.28;1.63;;;;;;;;;;5039680;28;20052;-93
2023/07/21 01:38:53;;;;;;;2.33;2.03;;;;;;;;;;5035636;28;20125;-93
2023/07/21 01:41:19;;;;;;;3.95;2.15;;;;;;;;;;5032543;28;20045;-94
2023/07/21 01:43:46;;;;;;;2.92;1.92;;;;;;;;;;5046830;28;20257;-94
2023/07/21 01:46:12;;;;;;;2.55;1.85;;;;;;;;;;5051113;28;20037;-93
2023/07/21 01:48:38;;;;;;;2.58;1.73;;;;;;;;;;5016060;28;20049;-94
2023/07/21 01:51:06;;;;;;;3.75;1.95;;;;;;;;;;5032815;28;20045;-93
2023/07/21 01:53:33;;;;;;;2.15;1.98;;;;;;;;;;5042977;28;20180;-93
2023/07/21 01:56:03;;;;;;;2.00;1.80;;;;;;;;;;5033391;28;20052;-93
2023/07/21 01:58:29;;;;;;;2.90;1.98;;;;;;;;;;5053624;28;20036;-93
2023/07/21 02:00:56;;;;;;;2.38;1.88;;;;;;;;;;5054109;28;20084;-93
2023/07/21 02:03:22;;;;;;;3.42;2.10;;;;;;;;;;5036752;28;20096;-94
2023/07/21 02:05:48;;;;;;;2.70;2.20;;;;;;;;;;5038660;28;20052;-94
2023/07/21 02:08:14;;;;;;;2.30;2.10;;;;;;;;;;5036481;28;20048;-93
2023/07/21 02:10:41;;;;;;;2.47;2.20;;;;;;;;;;5054273;28;20052;-93
2023/07/21 02:13:07;;;;;;;3.40;1.98;;;;;;;;;;5039173;28;20046;-94
2023/07/21 02:15:33;;;;;;;2.65;1.98;;;;;;;;;;5024207;28;20045;-94
2023/07/21 02:17:59;;;;;;;3.38;1.65;;;;;;;;;;5034060;28;20045;-94
2023/07/21 02:20:25;;;;;;;2.70;2.00;;;;;;;;;;5033597;28;20092;-93
2023/07/21 02:22:51;;;;;;;2.97;1.90;;;;;;;;;;5034334;28;20037;-92
2023/07/21 02:25:17;;;;;;;2.47;1.60;;;;;;;;;;5032771;28;20064;-89
2023/07/21 02:27:44;;;;;;;2.50;1.70;;;;;;;;;;5037896;28;20373;-86
2023/07/21 02:30:10;;;;;;;2.33;1.83;;;;;;;;;;5031383;28;20072;-85
2023/07/21 02:32:36;;;;;;;2.67;1.90;;;;;;;;;;5047427;28;20045;-89
2023/07/21 02:35:05;;;;;;;2.53;2.03;;;;;;;;;;5026679;28;20132;-89
2023/07/21 02:37:31;;;;;;;2.33;1.98;;;;;;;;;;5032562;28;20042;-93
2023/07/21 02:39:57;;;;;;;1.67;1.58;;;;;;;;;;5032991;28;20134;-84
2023/07/21 02:42:24;;;;;;;2.63;1.70;;;;;;;;;;5031975;28;20087;-91
2023/07/21 02:44:50;;;;;;;4.47;1.73;;;;;;;;;;5032787;28;20120;-91
2023/07/21 02:47:16;;;;;;;3.05;1.90;;;;;;;;;;5031665;28;20049;-91
2023/07/21 02:49:43;;;;;;;2.45;2.15;;;;;;;;;;5043949;28;20052;-91
2023/07/21 02:52:09;;;;;;;2.60;1.80;;;;;;;;;;5028909;28;20108;-91
2023/07/21 02:54:35;;;;;;;3.70;1.90;;;;;;;;;;5031153;28;20092;-90
2023/07/21 02:57:01;;;;;;;3.22;2.35;;;;;;;;;;5032346;28;20554;-91
2023/07/21 02:59:28;;;;;;;2.60;1.92;;;;;;;;;;5015388;28;20045;-91
2023/07/21 03:01:55;;;;;;;4.25;2.65;;;;;;;;;;5029366;28;20399;-91
2023/07/21 03:04:28;;;;;;;2.70;1.70;;;;;;;;;;5041098;28;20047;-91
2023/07/21 03:06:55;;;;;;;2.33;1.70;;;;;;;;;;5049581;28;20396;-91
2023/07/21 03:09:21;;;;;;;3.03;2.15;;;;;;;;;;5032369;28;20457;-92
2023/07/21 03:11:47;;;;;;;2.17;1.60;;;;;;;;;;5046585;28;20041;-90
2023/07/21 03:14:13;;;;;;;2.30;1.70;;;;;;;;;;5032151;28;20546;-90
2023/07/21 03:16:40;;;;;;;3.00;2.10;;;;;;;;;;5032804;28;20048;-91
2023/07/21 03:19:07;;;;;;;2.20;1.80;;;;;;;;;;5037156;28;20045;-91
2023/07/21 03:21:33;;;;;;;2.22;1.92;;;;;;;;;;5031501;28;20103;-91
2023/07/21 03:23:59;;;;;;;2.58;1.60;;;;;;;;;;5029762;28;20124;-91
2023/07/21 03:26:28;;;;;;;2.42;1.90;;;;;;;;;;5030420;28;20116;-90
2023/07/21 03:28:55;;;;;;;2.05;1.50;;;;;;;;;;5021490;28;20425;-90
2023/07/21 03:31:21;;;;;;;2.42;1.60;;;;;;;;;;5031352;28;20102;-91
2023/07/21 03:33:47;;;;;;;1.52;1.42;;;;;;;;;;5034993;28;20363;-90
2023/07/21 03:36:13;;;;;;;3.25;1.98;;;;;;;;;;5029598;28;20056;-91
2023/07/21 03:38:41;;;;;;;2.60;1.75;;;;;;;;;;5030625;28;20041;-91
2023/07/21 03:41:11;;;;;;;2.45;2.05;;;;;;;;;;5040330;28;20072;-90
2023/07/21 03:43:37;;;;;;;3.35;1.92;;;;;;;;;;5029957;28;20085;-90
2023/07/21 03:46:04;;;;;;;2.78;1.90;;;;;;;;;;5030655;28;20041;-91
2023/07/21 03:48:30;;;;;;;2.65;2.40;;;;;;;;;;5030115;28;20098;-90
2023/07/21 03:50:57;;;;;;;2.58;2.35;;;;;;;;;;5038275;28;20056;-90
2023/07/21 03:53:24;;;;;;;3.30;2.22;;;;;;;;;;5048091;28;20393;-91
2023/07/21 03:55:50;;;;;;;2.30;1.98;;;;;;;;;;5024997;28;20167;-91
2023/07/21 03:58:16;;;;;;;3.45;2.65;;;;;;;;;;5030377;28;20041;-90
2023/07/21 04:00:43;;;;;;;4.00;2.45;;;;;;;;;;4992640;28;1059497;-90
2023/07/21 04:03:09;;;;;;;3.58;2.70;;;;;;;;;;5045740;28;20045;-91
2023/07/21 04:05:35;;;;;;;3.38;2.75;;;;;;;;;;5040703;28;20084;-91
2023/07/21 04:08:01;;;;;;;3.15;2.15;;;;;;;;;;5031377;28;20046;-91
2023/07/21 04:10:27;;;;;;;4.85;2.33;;;;;;;;;;5031903;28;20316;-91
2023/07/21 04:12:54;;;;;;;2.65;2.28;;;;;;;;;;5030065;28;20094;-91
2023/07/21 04:15:20;;;;;;;3.65;2.38;;;;;;;;;;5029621;28;20044;-91
2023/07/21 04:17:46;;;;;;;2.83;2.17;;;;;;;;;;5036165;28;20037;-90
2023/07/21 04:20:13;;;;;;;4.55;2.67;;;;;;;;;;5038592;28;20037;-90
2023/07/21 04:22:39;;;;;;;3.70;2.40;;;;;;;;;;5043796;28;20041;-91
2023/07/21 04:25:05;;;;;;;3.20;2.75;;;;;;;;;;5047992;28;20134;-91
2023/07/21 04:27:32;;;;;;;2.65;2.30;;;;;;;;;;5030951;28;20099;-91
2023/07/21 04:29:59;;;;;;;2.78;2.05;;;;;;;;;;5029878;28;20037;-91
2023/07/21 04:32:25;;;;;;;3.83;2.35;;;;;;;;;;5041898;28;20045;-92
2023/07/21 04:34:51;;;;;;;3.22;2.50;;;;;;;;;;5048920;28;20464;-91
2023/07/21 04:37:17;;;;;;;2.95;2.22;;;;;;;;;;5049978;28;20072;-91
2023/07/21 04:39:43;;;;;;;4.00;2.17;;;;;;;;;;5032852;28;20394;-91
2023/07/21 04:42:09;;;;;;;3.00;2.40;;;;;;;;;;5045562;28;20042;-92
2023/07/21 04:44:35;;;;;;;5.25;3.92;;;;;;;;;;5029727;28;20045;-92
2023/07/21 04:47:04;;;;;;;5.53;2.50;;;;;;;;;;5030876;28;20045;-91
2023/07/21 04:49:31;;;;;;;2.50;2.30;;;;;;;;;;5031393;28;20049;-91
2023/07/21 04:51:58;;;;;;;3.38;2.58;;;;;;;;;;5043070;28;20049;-91
2023/07/21 04:54:24;;;;;;;2.63;2.00;;;;;;;;;;5040621;28;20402;-92
2023/07/21 04:56:52;;;;;;;2.72;2.20;;;;;;;;;;5047243;28;20451;-91
2023/07/21 04:59:18;;;;;;;5.07;2.55;;;;;;;;;;5026046;28;20049;-91
2023/07/21 05:01:45;;;;;;;3.13;2.38;;;;;;;;;;5046042;28;20456;-92
2023/07/21 05:04:11;;;;;;;3.78;2.42;;;;;;;;;;5037724;28;20394;-92
2023/07/21 05:06:37;;;;;;;3.00;2.30;;;;;;;;;;5047714;28;20076;-91
2023/07/21 05:09:03;;;;;;;3.08;2.00;;;;;;;;;;5050469;28;20036;-92
2023/07/21 05:11:29;;;;;;;3.30;2.63;;;;;;;;;;5049654;28;20049;-92
2023/07/21 05:13:56;;;;;;;3.45;2.28;;;;;;;;;;5044578;28;20486;-91
2023/07/21 05:16:22;;;;;;;4.00;2.72;;;;;;;;;;5048608;28;20041;-85
2023/07/21 05:18:48;;;;;;;2.33;2.08;;;;;;;;;;5029643;28;20393;-86
2023/07/21 05:21:15;;;;;;;2.83;2.40;;;;;;;;;;5016480;28;20165;-84
2023/07/21 05:23:41;;;;;;;2.83;2.40;;;;;;;;;;5034650;28;20072;-84
2023/07/21 05:26:08;;;;;;;4.25;2.10;;;;;;;;;;5026492;28;20037;-85
2023/07/21 05:28:35;;;;;;;2.55;2.05;;;;;;;;;;5045812;28;20104;-84
2023/07/21 05:31:01;;;;;;;4.07;2.40;;;;;;;;;;4998446;28;20053;-84
2023/07/21 05:33:29;;;;;;;2.92;2.17;;;;;;;;;;5026299;28;20049;-84
2023/07/21 05:36:05;;;;;;;2.45;2.17;;;;;;;;;;5038837;28;20196;-84
2023/07/21 05:38:32;;;;;;;4.75;2.20;;;;;;;;;;5028788;28;20099;-85
2023/07/21 05:40:58;;;;;;;2.15;1.95;;;;;;;;;;5011995;28;20116;-85
2023/07/21 05:43:24;;;;;;;2.08;1.88;;;;;;;;;;5029520;28;20042;-85
2023/07/21 05:45:50;;;;;;;2.78;1.88;;;;;;;;;;5030098;28;20406;-85
2023/07/21 05:48:16;;;;;;;2.85;1.80;;;;;;;;;;5046439;28;20076;-89
2023/07/21 05:50:42;;;;;;;2.17;1.73;;;;;;;;;;5032287;28;20482;-84
2023/07/21 05:53:09;;;;;;;3.97;2.50;;;;;;;;;;5010777;28;20049;-83
2023/07/21 05:55:35;;;;;;;3.13;1.85;;;;;;;;;;5011024;28;20387;-84
2023/07/21 05:58:01;;;;;;;2.92;1.80;;;;;;;;;;5014093;28;20038;-83
2023/07/21 06:00:27;;;;;;;2.92;1.95;;;;;;;;;;5007105;28;20102;-83
2023/07/21 06:02:53;;;;;;;3.33;1.83;;;;;;;;;;5027619;28;20049;-84
2023/07/21 06:05:19;;;;;;;3.13;1.73;;;;;;;;;;5009850;28;20045;-83
2023/07/21 06:07:45;;;;;;;2.65;2.15;;;;;;;;;;5010540;28;20053;-83
2023/07/21 06:10:12;;;;;;;4.47;1.50;;;;;;;;;;5039137;28;20094;-83
2023/07/21 06:12:38;;;;;;;4.10;1.90;;;;;;;;;;5010521;28;20060;-83
2023/07/21 06:15:06;;;;;;;2.97;2.38;;;;;;;;;;5019666;28;20160;-83
2023/07/21 06:17:32;;;;;;;2.40;1.60;;;;;;;;;;5015433;28;20033;-83
2023/07/21 06:19:58;;;;;;;1.98;1.48;;;;;;;;;;5016698;28;20488;-86
2023/07/21 06:22:24;;;;;;;1.67;1.40;;;;;;;;;;5029650;28;20037;-87
2023/07/21 06:24:50;;;;;;;1.67;1.30;;;;;;;;;;5026642;28;20045;-89
2023/07/21 06:27:17;;;;;;;1.40;1.25;;;;;;;;;;5036397;28;20478;-86
2023/07/21 06:29:43;;;;;;;1.85;0.85;;;;;;;;;;5028992;28;20057;-86
2023/07/21 06:32:09;;;;;;;1.35;0.95;;;;;;;;;;5030684;28;20052;-89
2023/07/21 06:34:35;;;;;;;1.17;0.82;;;;;;;;;;5037591;28;20048;-87
2023/07/21 06:37:01;;;;;;;0.90;0.65;;;;;;;;;;5031313;28;20041;-85
2023/07/21 06:39:27;;;;;;;1.58;0.85;;;;;;;;;;5033247;28;20037;-85
2023/07/21 06:41:53;;;;;;;2.92;1.08;;;;;;;;;;5041087;28;20076;-86
2023/07/21 06:44:20;;;;;;;1.08;0.95;;;;;;;;;;5041851;28;20045;-84
2023/07/21 06:46:51;;;;;;;1.35;0.90;;;;;;;;;;5037599;28;20049;-84
2023/07/21 06:49:17;;;;;;;2.90;0.80;;;;;;;;;;5042661;28;20049;-83
2023/07/21 06:51:43;;;;;;;0.70;0.60;;;;;;;;;;5032014;28;20560;-83
2023/07/21 06:54:09;;;;;;;0.77;0.70;;;;;;;;;;5034828;28;20397;-83
2023/07/21 06:56:35;;;;;;;1.63;0.93;;;;;;;;;;5032691;28;20060;-83
2023/07/21 06:59:02;;;;;;;1.92;0.70;;;;;;;;;;5034678;28;20076;-83
2023/07/21 07:01:28;;;;;;;2.15;0.70;;;;;;;;;;5017210;28;20103;-81
2023/07/21 07:03:55;;;;;;;0.73;0.73;;;;;;;;;;5031397;28;20064;-84
2023/07/21 07:06:22;;;;;;;1.42;0.80;;;;;;;;;;5044287;28;20390;-82
2023/07/21 07:08:48;;;;;;;2.00;1.02;;;;;;;;;;5042016;28;20095;-80
2023/07/21 07:11:14;;;;;;;1.65;1.10;;;;;;;;;;5047821;28;20441;-83
2023/07/21 07:13:40;;;;;;;1.30;0.63;;;;;;;;;;5047045;28;20091;-89
2023/07/21 07:16:06;;;;;;;2.50;1.45;;;;;;;;;;5033871;28;20643;-87
2023/07/21 07:18:32;;;;;;;1.27;0.80;;;;;;;;;;5016301;28;20037;-87
2023/07/21 07:20:58;;;;;;;3.00;1.10;;;;;;;;;;5042320;28;20034;-87
2023/07/21 07:23:24;;;;;;;4.13;0.90;;;;;;;;;;5013145;28;20504;-88
2023/07/21 07:25:51;;;;;;;1.02;0.80;;;;;;;;;;5013647;28;20136;-88
2023/07/21 07:28:18;;;;;;;1.77;1.42;;;;;;;;;;5031173;28;20049;-88
2023/07/21 07:30:45;;;;;;;1.17;0.65;;;;;;;;;;5031112;28;20041;-87
2023/07/21 07:33:11;;;;;;;2.50;0.90;;;;;;;;;;5031407;28;20037;-88
2023/07/21 07:35:46;;;;;;;1.10;0.65;;;;;;;;;;5029813;28;20425;-88
2023/07/21 07:38:12;;;;;;;1.40;0.63;;;;;;;;;;5031564;28;20037;-88
2023/07/21 07:40:39;;;;;;;1.33;0.70;;;;;;;;;;5013333;28;20071;-88
2023/07/21 07:43:05;;;;;;;1.15;0.80;;;;;;;;;;5013560;28;20064;-88
2023/07/21 07:45:31;;;;;;;3.22;1.10;;;;;;;;;;5029127;28;20042;-89
2023/07/21 07:47:57;;;;;;;1.27;0.90;;;;;;;;;;5027913;28;20041;-88
2023/07/21 07:50:23;;;;;;;1.88;0.73;;;;;;;;;;5027974;28;20509;-88
2023/07/21 07:52:49;;;;;;;1.70;0.70;;;;;;;;;;5030785;28;20471;-89
2023/07/21 07:55:15;;;;;;;1.35;0.70;;;;;;;;;;5031346;28;20045;-84
2023/07/21 07:57:41;;;;;;;0.85;0.70;;;;;;;;;;5040001;28;20119;-82
2023/07/21 08:00:08;;;;;;;0.75;0.63;;;;;;;;;;5050318;28;20053;-83
2023/07/21 08:02:34;;;;;;;1.27;0.90;;;;;;;;;;5043895;28;20087;-81
2023/07/21 08:05:00;;;;;;;1.00;0.77;;;;;;;;;;5029964;28;20041;-81
2023/07/21 08:07:26;;;;;;;3.28;0.80;;;;;;;;;;5026036;28;20064;-81
2023/07/21 08:09:52;;;;;;;1.38;0.70;;;;;;;;;;5030265;28;20046;-81
2023/07/21 08:12:18;;;;;;;0.57;0.52;;;;;;;;;;5011692;28;20058;-81
2023/07/21 08:14:44;;;;;;;3.10;1.25;;;;;;;;;;5029888;28;20116;-81
2023/07/21 08:17:10;;;;;;;1.33;0.82;;;;;;;;;;5030900;28;20033;-82
2023/07/21 08:19:37;;;;;;;1.50;0.88;;;;;;;;;;5015668;28;20122;-83
2023/07/21 08:22:05;;;;;;;0.70;0.60;;;;;;;;;;5029768;28;20081;-83
2023/07/21 08:24:32;;;;;;;3.60;0.80;;;;;;;;;;5028622;28;20045;-82
2023/07/21 08:27:02;;;;;;;0.70;0.60;;;;;;;;;;5028352;28;20091;-84
2023/07/21 08:29:29;;;;;;;1.75;0.90;;;;;;;;;;5029279;28;20042;-82
2023/07/21 08:31:55;;;;;;;1.13;0.70;;;;;;;;;;5030217;28;20346;-82
2023/07/21 08:34:21;;;;;;;1.27;0.80;;;;;;;;;;5019702;28;20422;-85
2023/07/21 08:36:47;;;;;;;1.15;0.50;;;;;;;;;;5049927;28;20037;-85
2023/07/21 08:39:13;;;;;;;0.77;0.68;;;;;;;;;;5032720;28;20371;-83
2023/07/21 08:41:45;;;;;;;3.53;0.85;;;;;;;;;;5023453;28;20045;-84
2023/07/21 08:44:11;;;;;;;0.85;0.75;;;;;;;;;;5012359;28;20041;-83
2023/07/21 08:46:37;;;;;;;1.05;0.63;;;;;;;;;;5025720;28;20045;-83
2023/07/21 08:49:05;;;;;;;1.63;0.80;;;;;;;;;;5035516;28;20073;-85
2023/07/21 08:51:31;;;;;;;0.68;0.68;;;;;;;;;;5045477;28;20043;-85
2023/07/21 08:53:57;;;;;;;0.70;0.55;;;;;;;;;;5034439;28;20042;-86
2023/07/21 08:56:24;;;;;;;0.98;0.80;;;;;;;;;;5023097;28;20090;-89
2023/07/21 08:58:50;;;;;;;1.05;0.90;;;;;;;;;;5030968;28;20091;-86
2023/07/21 09:01:17;;;;;;;1.50;0.80;;;;;;;;;;5042831;28;20087;-86
2023/07/21 09:03:47;;;;;;;0.95;0.85;;;;;;;;;;5049429;28;20094;-85
2023/07/21 09:06:14;;;;;;;1.05;0.60;;;;;;;;;;5032161;28;20383;-86
2023/07/21 09:08:40;;;;;;;1.40;1.20;;;;;;;;;;5013798;28;20044;-87
2023/07/21 09:11:09;;;;;;;2.20;1.13;;;;;;;;;;5015925;28;20380;-84
2023/07/21 09:13:35;;;;;;;2.75;1.00;;;;;;;;;;5025554;28;20088;-84
2023/07/21 09:16:02;;;;;;;3.47;0.85;;;;;;;;;;5014488;28;20034;-85
2023/07/21 09:18:41;;;;;;;2.30;1.05;;;;;;;;;;5028390;28;20124;-84
2023/07/21 09:21:08;;;;;;;0.77;0.77;;;;;;;;;;5037916;28;20036;-84
2023/07/21 09:23:36;;;;;;;1.30;1.02;;;;;;;;;;5040476;28;20378;-84
2023/07/21 09:26:02;;;;;;;1.05;0.95;;;;;;;;;;5044843;28;20040;-84
2023/07/21 09:28:41;;;;;;;0.88;0.75;;;;;;;;;;5008146;28;20052;-85
2023/07/21 09:31:08;;;;;;;1.40;0.88;;;;;;;;;;5034979;28;20406;-83
2023/07/21 09:33:40;;;;;;;2.00;1.15;;;;;;;;;;5033872;28;20037;-82
2023/07/21 09:36:10;;;;;;;1.52;1.40;;;;;;;;;;5048926;28;20114;-83
2023/07/21 09:38:36;;;;;;;;;;;;;;;;;;5030710;28;20067;-83
2023/07/21 09:41:03;;;;;;;1.42;1.27;;;;;;;;;;5036170;28;19917;-83
2023/07/21 09:43:30;;;;;;;1.67;1.10;;;;;;;;;;5035585;28;20440;-84
2023/07/21 09:45:58;;;;;;;1.90;0.85;;;;;;;;;;5030875;28;20048;-84
2023/07/21 09:48:25;;;;;;;1.30;1.00;;;;;;;;;;5012769;28;21946;-85
2023/07/21 09:50:51;;;;;;;1.88;1.00;;;;;;;;;;5032180;28;20158;-84
2023/07/21 09:53:20;;;;;;;1.08;0.75;;;;;;;;;;5030434;28;20038;-86
2023/07/21 09:55:48;;;;;;;1.45;0.63;;;;;;;;;;5029258;28;20055;-84
2023/07/21 09:58:15;;;;;;;1.02;0.80;;;;;;;;;;5029177;28;20040;-85
2023/07/21 10:00:42;;;;;;;1.02;0.63;;;;;;;;;;5016033;28;20046;-83
2023/07/21 10:03:08;;;;;;;1.52;0.77;;;;;;;;;;5026816;28;20072;-81
2023/07/21 10:05:36;;;;;;;1.25;0.82;;;;;;;;;;5042254;28;20045;-85
2023/07/21 10:08:03;;;;;;;1.30;0.65;;;;;;;;;;5043364;28;20408;-85
2023/07/21 10:10:29;;;;;;;0.90;0.80;;;;;;;;;;5029816;28;20055;-84
2023/07/21 10:12:56;;;;;;;1.90;0.63;;;;;;;;;;5002423;28;20220;-86
2023/07/21 10:15:28;;;;;;;2.40;0.93;;;;;;;;;;5045651;28;20099;-85
2023/07/21 10:17:58;;;;;;;0.73;0.60;;;;;;;;;;5031939;28;20037;-86
2023/07/21 10:20:24;;;;;;;;;;;;;;;;;;5045209;28;20466;-85
2023/07/21 10:22:56;;;;;;;0.80;0.80;;;;;;;;;;5046605;28;19921;-86
2023/07/21 10:25:25;;;;;;;0.80;0.70;;;;;;;;;;5031712;28;20053;-85
2023/07/21 10:28:04;;;;;;;2.03;0.75;;;;;;;;;;5026794;28;20045;-86
2023/07/21 10:30:30;;;;;;;1.05;0.85;;;;;;;;;;5023054;28;20041;-84
2023/07/21 10:32:56;;;;;;;1.02;0.95;;;;;;;;;;5021390;28;20382;-82
2023/07/21 10:35:36;;;;;;;1.52;0.80;;;;;;;;;;5043939;28;20275;-86
2023/07/21 10:38:11;;;;;;;1.08;0.80;;;;;;;;;;5020688;28;20076;-88
2023/07/21 10:40:38;;;;;;;1.27;1.05;;;;;;;;;;5038535;28;20041;-85
2023/07/21 10:43:04;;;;;;;1.83;0.93;;;;;;;;;;5032614;28;20107;-89
2023/07/21 10:45:30;;;;;;;4.00;0.80;;;;;;;;;;5041766;28;20400;-86
2023/07/21 10:47:56;;;;;;;1.67;0.70;;;;;;;;;;5040926;28;20401;-84
2023/07/21 10:50:23;;;;;;;1.05;0.70;;;;;;;;;;5015095;28;20050;-83
2023/07/21 10:52:53;;;;;;;0.70;0.70;;;;;;;;;;5014604;28;20041;-89
2023/07/21 10:55:19;;;;;;;1.40;0.80;;;;;;;;;;5030311;28;20041;-86
2023/07/21 10:57:45;;;;;;;0.80;0.65;;;;;;;;;;5033820;28;20045;-87
2023/07/21 11:00:12;;;;;;;0.77;0.75;;;;;;;;;;5040572;28;20112;-85
2023/07/21 11:02:38;;;;;;;0.93;0.88;;;;;;;;;;5041448;28;20064;-88
2023/07/21 11:05:05;;;;;;;1.92;0.85;;;;;;;;;;5046255;28;20036;-86
2023/07/21 11:07:31;;;;;;;1.13;0.80;;;;;;;;;;5033285;28;20041;-85
2023/07/21 11:10:00;;;;;;;1.42;1.10;;;;;;;;;;5027427;28;20037;-86
2023/07/21 11:12:26;;;;;;;1.02;0.90;;;;;;;;;;5037251;28;20041;-87
2023/07/21 11:14:55;;;;;;;1.85;0.88;;;;;;;;;;5038448;28;20040;-87
2023/07/21 11:17:21;;;;;;;1.00;0.88;;;;;;;;;;5044829;28;20069;-88
2023/07/21 11:19:47;;;;;;;1.10;0.90;;;;;;;;;;5044064;28;20044;-88
2023/07/21 11:22:13;;;;;;;0.70;0.70;;;;;;;;;;5046956;28;20094;-90
2023/07/21 11:24:39;;;;;;;1.00;0.70;;;;;;;;;;5051724;28;20047;-90
2023/07/21 11:27:06;;;;;;;0.77;0.68;;;;;;;;;;5042555;28;20045;-90
2023/07/21 11:29:35;;;;;;;1.00;0.90;;;;;;;;;;5030500;28;20104;-90
2023/07/21 11:32:01;;;;;;;1.20;1.00;;;;;;;;;;5034208;28;20077;-92
2023/07/21 11:34:29;;;;;;;0.93;0.73;;;;;;;;;;5031155;28;20036;-91
2023/07/21 11:36:59;;;;;;;1.10;0.88;;;;;;;;;;5030796;28;20583;-87
2023/07/21 11:39:27;;;;;;;1.10;1.00;;;;;;;;;;5030824;28;20095;-94
2023/07/21 11:41:53;;;;;;;2.13;0.75;;;;;;;;;;5031139;28;20037;-89
2023/07/21 11:44:30;;;;;;;1.63;0.80;;;;;;;;;;5030116;28;20103;-86
2023/07/21 11:46:57;;;;;;;1.30;0.80;;;;;;;;;;5030580;28;20547;-84
2023/07/21 11:49:25;;;;;;;0.77;0.70;;;;;;;;;;5030149;28;20128;-90
2023/07/21 11:51:52;;;;;;;1.52;0.80;;;;;;;;;;5030844;28;20108;-88
2023/07/21 11:54:20;;;;;;;0.75;0.60;;;;;;;;;;5042556;28;20041;-86
2023/07/21 11:56:46;;;;;;;0.75;0.60;;;;;;;;;;5050970;28;20082;-89
2023/07/21 11:59:12;;;;;;;0.95;0.80;;;;;;;;;;5024528;28;20041;-86
2023/07/21 12:01:39;;;;;;;0.90;0.65;;;;;;;;;;5050012;28;20052;-85
2023/07/21 12:04:05;;;;;;;1.02;0.70;;;;;;;;;;5032387;28;20053;-89
2023/07/21 12:06:31;;;;;;;1.00;0.82;;;;;;;;;;5030351;28;20124;-87
2023/07/21 12:08:57;;;;;;;1.65;0.90;;;;;;;;;;5040577;28;20434;-89
2023/07/21 12:11:23;;;;;;;0.55;0.55;;;;;;;;;;5029020;28;20187;-86
2023/07/21 12:13:50;;;;;;;0.85;0.80;;;;;;;;;;5031990;28;20045;-85
2023/07/21 12:16:16;;;;;;;1.20;0.55;;;;;;;;;;5047055;28;20091;-88
2023/07/21 12:18:42;;;;;;;0.60;0.60;;;;;;;;;;5027694;28;20045;-86
2023/07/21 12:21:08;;;;;;;1.55;0.70;;;;;;;;;;5010204;28;20394;-87
2023/07/21 12:23:35;;;;;;;1.38;1.00;;;;;;;;;;5028325;28;20045;-89
2023/07/21 12:26:01;;;;;;;0.60;0.60;;;;;;;;;;5030646;28;20544;-94
2023/07/21 12:28:27;;;;;;;1.17;0.60;;;;;;;;;;5014411;28;20128;-95
2023/07/21 12:30:53;;;;;;;0.70;0.60;;;;;;;;;;5030433;28;20056;-92
2023/07/21 12:33:19;;;;;;;1.02;0.70;;;;;;;;;;5033563;28;20054;-93
2023/07/21 12:35:46;;;;;;;0.60;0.60;;;;;;;;;;5028220;28;20038;-92
2023/07/21 12:38:12;;;;;;;0.90;0.75;;;;;;;;;;5029278;28;20038;-93
2023/07/21 12:40:39;;;;;;;1.20;0.75;;;;;;;;;;5031231;28;20068;-93
2023/07/21 12:43:05;;;;;;;0.65;0.52;;;;;;;;;;5031310;28;20045;-93
2023/07/21 12:45:31;;;;;;;0.77;0.60;;;;;;;;;;5032253;28;20041;-95
2023/07/21 12:47:58;;;;;;;0.75;0.75;;;;;;;;;;5016318;28;20172;-91
2023/07/21 12:50:24;;;;;;;0.95;0.80;;;;;;;;;;5012294;28;20541;-90
2023/07/21 12:52:50;;;;;;;0.77;0.60;;;;;;;;;;5029901;28;20117;-93
2023/07/21 12:55:16;;;;;;;1.25;0.60;;;;;;;;;;5013024;28;20057;-90
2023/07/21 12:57:43;;;;;;;0.85;0.68;;;;;;;;;;5028834;28;20029;-88
2023/07/21 13:00:13;;;;;;;0.80;0.80;;;;;;;;;;5031005;28;20041;-94
2023/07/21 13:02:39;;;;;;;1.15;0.65;;;;;;;;;;5030025;28;20045;-92
2023/07/21 13:05:06;;;;;;;0.75;0.70;;;;;;;;;;5005921;28;20132;-91
2023/07/21 13:07:33;;;;;;;0.52;0.47;;;;;;;;;;5013175;28;20117;-92
2023/07/21 13:09:59;;;;;;;0.73;0.63;;;;;;;;;;5047897;28;20457;-94
2023/07/21 13:12:25;;;;;;;0.73;0.50;;;;;;;;;;5043739;28;20095;-91
2023/07/21 13:14:51;;;;;;;1.35;0.73;;;;;;;;;;5030791;28;20048;-92
2023/07/21 13:17:18;;;;;;;4.03;1.10;;;;;;;;;;5010073;28;20040;-87
2023/07/21 13:19:44;;;;;;;2.63;1.10;;;;;;;;;;5011442;28;20034;-85
2023/07/21 13:22:10;;;;;;;2.53;1.33;;;;;;;;;;5029201;28;20404;-89
2023/07/21 13:24:36;;;;;;;2.38;1.50;;;;;;;;;;5014858;28;20551;-94
2023/07/21 13:27:02;;;;;;;1.27;1.10;;;;;;;;;;5032650;28;20041;-90
2023/07/21 13:29:28;;;;;;;1.95;0.90;;;;;;;;;;5020728;28;20497;-89
2023/07/21 13:31:54;;;;;;;1.02;0.93;;;;;;;;;;5017347;28;20041;-90
2023/07/21 13:34:20;;;;;;;1.00;0.75;;;;;;;;;;5021430;28;20038;-92
2023/07/21 13:36:46;;;;;;;1.58;0.88;;;;;;;;;;5028414;28;20044;-85
2023/07/21 13:39:12;;;;;;;1.75;1.10;;;;;;;;;;5011803;28;20050;-89
2023/07/21 13:41:39;;;;;;;0.73;0.73;;;;;;;;;;5029399;28;20040;-90
2023/07/21 13:44:05;;;;;;;2.03;1.20;;;;;;;;;;5034299;28;20041;-95
2023/07/21 13:46:31;;;;;;;1.83;0.82;;;;;;;;;;5035903;28;20077;-92
2023/07/21 13:48:57;;;;;;;2.03;1.10;;;;;;;;;;5020555;28;20049;-95
2023/07/21 13:51:24;;;;;;;1.70;1.00;;;;;;;;;;5018182;28;20049;-90
2023/07/21 13:53:50;;;;;;;1.30;0.90;;;;;;;;;;5018070;28;20045;-91
2023/07/21 13:56:16;;;;;;;1.77;1.30;;;;;;;;;;5036432;28;20041;-94
2023/07/21 13:58:42;;;;;;;1.13;1.02;;;;;;;;;;5024010;28;20072;-85
2023/07/21 14:01:09;;;;;;;1.35;1.20;;;;;;;;;;5033106;28;20065;-95
2023/07/21 14:03:36;;;;;;;2.17;1.40;;;;;;;;;;5046820;28;20102;-90
2023/07/21 14:06:02;;;;;;;1.48;1.05;;;;;;;;;;5055013;28;20425;-94
2023/07/21 14:08:28;;;;;;;2.58;1.40;;;;;;;;;;5044874;28;20116;-93
2023/07/21 14:10:54;;;;;;;1.80;1.50;;;;;;;;;;5039395;28;20044;-94
2023/07/21 14:13:21;;;;;;;1.90;1.48;;;;;;;;;;5013550;28;20034;-94
2023/07/21 14:15:48;;;;;;;2.22;1.23;;;;;;;;;;5055906;28;20041;-93
2023/07/21 14:18:14;;;;;;;2.17;1.23;;;;;;;;;;5037455;28;20154;-95
2023/07/21 14:20:40;;;;;;;1.33;1.00;;;;;;;;;;5035189;28;20053;-93
2023/07/21 14:23:06;;;;;;;1.60;1.38;;;;;;;;;;5014330;28;20060;-95
2023/07/21 14:25:33;;;;;;;2.05;1.30;;;;;;;;;;5055975;28;20040;-93
2023/07/21 14:27:59;;;;;;;1.98;1.40;;;;;;;;;;5038909;28;20041;-95
2023/07/21 14:30:26;;;;;;;1.42;1.27;;;;;;;;;;5018841;28;20124;-93
2023/07/21 14:32:52;;;;;;;1.67;1.52;;;;;;;;;;5035491;28;20049;-95
2023/07/21 14:35:20;;;;;;;2.13;1.52;;;;;;;;;;5038660;28;20041;-90
2023/07/21 14:37:46;;;;;;;1.33;1.23;;;;;;;;;;5031681;28;20052;-92
2023/07/21 14:40:14;;;;;;;1.23;0.95;;;;;;;;;;5036579;28;20045;-91